Jackson, KY

5:03 PM EDT on July 04, 2015 (GMT -0400)
Carroll | | Change Station
CLOSE
Current Station
Airport
Location: Jackson,
Elevation: 1381 ft
Nearby Weather Stations

Elev 1381 ft 37.59 °N, 83.31 °W | Updated 10 minutes ago

Partly Cloudy
Partly Cloudy
76 °F
Feels Like 76 °F
N
4
Wind Variable Wind from Variable

Today
High -- | Low -- °F
--% Chance of Precip.
Yesterday
High -- | Low -- °F
Precip. -- in
6:17 AM 8:58 PM
Waning Gibbous, 90% visible
Pressure 29.98 in
Visibility 10.0 miles
Clouds Scattered Clouds 2500 ft
Mostly Cloudy 3400 ft
Dew Point 66 °F
Humidity 71%
Rainfall 0.11 in
Snow Depth Not available.
UV 4 out of 12
Pollen .50 out of 12
Air Quality Not available.
Flu Activity Not available.
METAR KJKL 042053Z AUTO VRB03KT 10SM SCT025 BKN034 24/19 A3002 RMK AO2 SLP152 60000 T02440189 58004

More Conditions Fewer Conditions

Pressure 29.98 in
Visibility 10.0 miles
Clouds Scattered Clouds 2500 ft
Mostly Cloudy 3400 ft
Dew Point 66 °F
Humidity 71%
Rainfall 0.11 in
Snow Depth Not available.
UV 4 out of 12
Pollen .50 out of 12
Air Quality Not available.
Flu Activity Not available.
METAR KJKL 042053Z AUTO VRB03KT 10SM SCT025 BKN034 24/19 A3002 RMK AO2 SLP152 60000 T02440189 58004

More Conditions Fewer Conditions

10-Day Weather Forecast

×

Almanac

Astronomy

Jul. 04, 2015 Rise Set
Actual Time
Civil Twilight
Nautical Twilight
Astronomical Twilight
Moon
Length of Visible Light
Length of Day
Tomorrow will be .
, % of the Moon is Illuminated

Today's Extremes

State Highs State Lows

Community

WunderPhotos

Upload Photos

1,835,100 photos uploaded!

WunderBlogs® & News

Nearby

Air Quality

  Air Quality AQ Index Pollutant
Not available.

Snow Depth

Station Depth Elevation

Earthquake Activity

City Distance Mag. Time & Date
Minimum magnitude displayed is 2.5.

Coastal Water Temperatures

Place Temperature

Stations

Nearby Weather Stations

Station Location Temp. Windchill Dew Point Humidity Wind Precip. Elev Updated Type